sensor_id;sensor_type;location;lat;lon;timestamp;pressure;altitude;pressure_sealevel;temperature;humidity
84764;BME280;74992;51.072;6.088;2024-02-28T00:00:54;101805.56;;;0.28;93.18
84764;BME280;74992;51.072;6.088;2024-02-28T00:03:55;101799.34;;;0.23;93.03
84764;BME280;74992;51.072;6.088;2024-02-28T00:06:57;101787.88;;;0.30;93.27
84764;BME280;74992;51.072;6.088;2024-02-28T00:09:59;101799.69;;;0.29;93.37
84764;BME280;74992;51.072;6.088;2024-02-28T00:13:00;101795.38;;;0.42;93.56
84764;BME280;74992;51.072;6.088;2024-02-28T00:16:02;101784.66;;;0.33;93.85
84764;BME280;74992;51.072;6.088;2024-02-28T00:19:04;101787.78;;;0.28;93.59
84764;BME280;74992;51.072;6.088;2024-02-28T00:22:06;101790.50;;;0.32;93.94
84764;BME280;74992;51.072;6.088;2024-02-28T00:25:07;101794.06;;;0.20;94.11
84764;BME280;74992;51.072;6.088;2024-02-28T00:28:12;101789.38;;;0.54;93.71
84764;BME280;74992;51.072;6.088;2024-02-28T00:31:13;101800.34;;;0.40;93.48
84764;BME280;74992;51.072;6.088;2024-02-28T00:34:15;101798.09;;;0.45;93.85
84764;BME280;74992;51.072;6.088;2024-02-28T00:37:16;101799.88;;;0.33;93.57
84764;BME280;74992;51.072;6.088;2024-02-28T00:40:18;101793.22;;;0.48;93.39
84764;BME280;74992;51.072;6.088;2024-02-28T00:43:19;101790.50;;;0.32;93.05
84764;BME280;74992;51.072;6.088;2024-02-28T00:46:21;101789.19;;;0.10;93.43
84764;BME280;74992;51.072;6.088;2024-02-28T00:49:22;101802.16;;;0.28;93.26
84764;BME280;74992;51.072;6.088;2024-02-28T00:52:24;101800.03;;;0.49;93.18
84764;BME280;74992;51.072;6.088;2024-02-28T00:55:27;101796.84;;;0.38;92.60
84764;BME280;74992;51.072;6.088;2024-02-28T00:58:29;101797.81;;;0.40;92.50
84764;BME280;74992;51.072;6.088;2024-02-28T01:01:30;101805.16;;;0.64;92.09
84764;BME280;74992;51.072;6.088;2024-02-28T01:04:32;101816.28;;;0.38;92.73
84764;BME280;74992;51.072;6.088;2024-02-28T01:07:33;101818.47;;;0.18;92.58
84764;BME280;74992;51.072;6.088;2024-02-28T01:10:35;101824.44;;;0.06;93.30
84764;BME280;74992;51.072;6.088;2024-02-28T01:13:38;101820.94;;;0.04;93.19
84764;BME280;74992;51.072;6.088;2024-02-28T01:16:39;101808.59;;;0.10;94.21
84764;BME280;74992;51.072;6.088;2024-02-28T01:19:41;101811.47;;;0.14;93.93
84764;BME280;74992;51.072;6.088;2024-02-28T01:22:42;101803.50;;;0.23;94.28
84764;BME280;74992;51.072;6.088;2024-02-28T01:25:44;101802.63;;;0.22;95.64
84764;BME280;74992;51.072;6.088;2024-02-28T01:28:45;101805.97;;;0.21;96.08
84764;BME280;74992;51.072;6.088;2024-02-28T01:31:47;101801.34;;;0.29;96.24
84764;BME280;74992;51.072;6.088;2024-02-28T01:34:49;101794.00;;;0.34;96.12
84764;BME280;74992;51.072;6.088;2024-02-28T01:37:50;101798.22;;;0.33;96.19
84764;BME280;74992;51.072;6.088;2024-02-28T01:40:52;101798.66;;;0.26;96.24
84764;BME280;74992;51.072;6.088;2024-02-28T01:43:53;101797.06;;;0.28;96.37
84764;BME280;74992;51.072;6.088;2024-02-28T01:46:56;101792.88;;;0.28;95.99
84764;BME280;74992;51.072;6.088;2024-02-28T01:49:58;101793.25;;;0.21;96.69
84764;BME280;74992;51.072;6.088;2024-02-28T01:53:01;101800.09;;;0.22;96.86
84764;BME280;74992;51.072;6.088;2024-02-28T01:56:02;101793.09;;;0.18;96.48
84764;BME280;74992;51.072;6.088;2024-02-28T01:59:04;101799.72;;;0.16;96.46
84764;BME280;74992;51.072;6.088;2024-02-28T02:02:07;101790.38;;;0.15;97.30
84764;BME280;74992;51.072;6.088;2024-02-28T02:05:09;101790.38;;;0.15;97.43
84764;BME280;74992;51.072;6.088;2024-02-28T02:08:11;101777.59;;;0.14;96.94
84764;BME280;74992;51.072;6.088;2024-02-28T02:11:14;101775.13;;;0.15;97.05
84764;BME280;74992;51.072;6.088;2024-02-28T02:14:17;101772.09;;;0.21;97.43
84764;BME280;74992;51.072;6.088;2024-02-28T02:17:19;101782.53;;;0.25;97.41
84764;BME280;74992;51.072;6.088;2024-02-28T02:20:20;101790.69;;;0.35;97.62
84764;BME280;74992;51.072;6.088;2024-02-28T02:23:22;101786.78;;;0.40;97.78
84764;BME280;74992;51.072;6.088;2024-02-28T02:26:24;101788.00;;;0.46;97.90
84764;BME280;74992;51.072;6.088;2024-02-28T02:29:26;101785.88;;;0.52;97.51
84764;BME280;74992;51.072;6.088;2024-02-28T02:32:28;101790.53;;;0.60;98.08
84764;BME280;74992;51.072;6.088;2024-02-28T02:35:29;101783.56;;;0.70;97.79
84764;BME280;74992;51.072;6.088;2024-02-28T02:38:31;101789.00;;;0.76;98.13
84764;BME280;74992;51.072;6.088;2024-02-28T02:41:32;101792.09;;;0.85;98.18
84764;BME280;74992;51.072;6.088;2024-02-28T02:44:34;101787.34;;;0.92;98.25
84764;BME280;74992;51.072;6.088;2024-02-28T02:47:36;101798.75;;;0.98;98.47
84764;BME280;74992;51.072;6.088;2024-02-28T02:50:37;101800.09;;;1.06;98.25
84764;BME280;74992;51.072;6.088;2024-02-28T02:53:39;101793.59;;;1.11;98.29
84764;BME280;74992;51.072;6.088;2024-02-28T02:56:43;101794.94;;;1.20;98.20
84764;BME280;74992;51.072;6.088;2024-02-28T02:59:44;101797.13;;;1.28;98.70
84764;BME280;74992;51.072;6.088;2024-02-28T03:02:46;101808.59;;;1.36;98.30
84764;BME280;74992;51.072;6.088;2024-02-28T03:05:48;101815.97;;;1.46;98.39
84764;BME280;74992;51.072;6.088;2024-02-28T03:08:49;101816.41;;;1.54;98.67
84764;BME280;74992;51.072;6.088;2024-02-28T03:11:51;101812.63;;;1.62;98.66
84764;BME280;74992;51.072;6.088;2024-02-28T03:14:53;101812.16;;;1.69;98.37
84764;BME280;74992;51.072;6.088;2024-02-28T03:17:55;101806.44;;;1.73;98.92
84764;BME280;74992;51.072;6.088;2024-02-28T03:20:56;101803.56;;;1.82;99.07
84764;BME280;74992;51.072;6.088;2024-02-28T03:23:57;101801.88;;;1.83;98.82
84764;BME280;74992;51.072;6.088;2024-02-28T03:26:59;101803.63;;;1.84;98.73
84764;BME280;74992;51.072;6.088;2024-02-28T03:30:00;101804.69;;;1.87;98.47
84764;BME280;74992;51.072;6.088;2024-02-28T03:33:03;101822.03;;;1.94;98.55
84764;BME280;74992;51.072;6.088;2024-02-28T03:36:05;101821.25;;;1.95;98.99
84764;BME280;74992;51.072;6.088;2024-02-28T03:39:07;101821.25;;;1.95;98.64
84764;BME280;74992;51.072;6.088;2024-02-28T03:42:08;101832.41;;;1.97;98.97
84764;BME280;74992;51.072;6.088;2024-02-28T03:45:10;101832.50;;;1.99;98.92
84764;BME280;74992;51.072;6.088;2024-02-28T03:48:11;101840.13;;;1.99;99.04
84764;BME280;74992;51.072;6.088;2024-02-28T03:51:12;101841.09;;;2.01;98.73
84764;BME280;74992;51.072;6.088;2024-02-28T03:54:14;101835.28;;;2.03;98.88
84764;BME280;74992;51.072;6.088;2024-02-28T03:57:16;101835.00;;;2.14;98.96
84764;BME280;74992;51.072;6.088;2024-02-28T04:00:17;101830.63;;;2.11;99.26
84764;BME280;74992;51.072;6.088;2024-02-28T04:03:19;101829.09;;;2.15;99.32
84764;BME280;74992;51.072;6.088;2024-02-28T04:06:20;101833.41;;;2.16;98.93
84764;BME280;74992;51.072;6.088;2024-02-28T04:09:22;101830.22;;;2.20;98.78
84764;BME280;74992;51.072;6.088;2024-02-28T04:12:23;101828.59;;;2.20;99.26
84764;BME280;74992;51.072;6.088;2024-02-28T04:15:25;101825.69;;;2.14;99.15
84764;BME280;74992;51.072;6.088;2024-02-28T04:18:27;101836.50;;;2.10;99.08
84764;BME280;74992;51.072;6.088;2024-02-28T04:21:29;101845.09;;;2.12;98.97
84764;BME280;74992;51.072;6.088;2024-02-28T04:24:31;101845.63;;;2.07;99.46
84764;BME280;74992;51.072;6.088;2024-02-28T04:27:33;101850.56;;;2.03;99.38
84764;BME280;74992;51.072;6.088;2024-02-28T04:30:36;101852.16;;;2.01;98.94
84764;BME280;74992;51.072;6.088;2024-02-28T04:33:38;101847.13;;;2.03;98.99
84764;BME280;74992;51.072;6.088;2024-02-28T04:36:39;101846.41;;;2.05;99.17
84764;BME280;74992;51.072;6.088;2024-02-28T04:39:41;101849.75;;;2.04;99.27
84764;BME280;74992;51.072;6.088;2024-02-28T04:42:42;101847.84;;;2.00;99.17
84764;BME280;74992;51.072;6.088;2024-02-28T04:45:44;101852.16;;;2.01;98.85
84764;BME280;74992;51.072;6.088;2024-02-28T04:48:45;101850.41;;;2.00;99.27
84764;BME280;74992;51.072;6.088;2024-02-28T04:51:47;101854.44;;;1.97;99.43
84764;BME280;74992;51.072;6.088;2024-02-28T04:54:49;101848.44;;;1.96;98.96
84764;BME280;74992;51.072;6.088;2024-02-28T04:57:50;101846.81;;;1.97;99.01
84764;BME280;74992;51.072;6.088;2024-02-28T05:00:52;101844.94;;;1.94;98.99
84764;BME280;74992;51.072;6.088;2024-02-28T05:03:53;101842.97;;;1.89;99.07
84764;BME280;74992;51.072;6.088;2024-02-28T05:06:55;101841.28;;;1.89;99.34
84764;BME280;74992;51.072;6.088;2024-02-28T05:09:56;101848.44;;;1.96;99.28
84764;BME280;74992;51.072;6.088;2024-02-28T05:12:58;101856.81;;;1.94;99.16
84764;BME280;74992;51.072;6.088;2024-02-28T05:15:59;101867.69;;;1.91;98.91
84764;BME280;74992;51.072;6.088;2024-02-28T05:19:01;101858.31;;;1.90;99.16
84764;BME280;74992;51.072;6.088;2024-02-28T05:22:05;101857.59;;;1.93;98.92
84764;BME280;74992;51.072;6.088;2024-02-28T05:25:06;101869.59;;;1.95;99.43
84764;BME280;74992;51.072;6.088;2024-02-28T05:28:08;101868.06;;;1.97;99.10
84764;BME280;74992;51.072;6.088;2024-02-28T05:34:22;101873.56;;;2.05;99.07
84764;BME280;74992;51.072;6.088;2024-02-28T05:37:23;101871.78;;;2.04;99.26
84764;BME280;74992;51.072;6.088;2024-02-28T05:40:25;101880.22;;;2.03;98.97
84764;BME280;74992;51.072;6.088;2024-02-28T05:43:26;101878.81;;;2.08;99.25
84764;BME280;74992;51.072;6.088;2024-02-28T05:46:28;101875.69;;;1.97;99.60
84764;BME280;74992;51.072;6.088;2024-02-28T05:49:29;101893.31;;;1.94;99.32
84764;BME280;74992;51.072;6.088;2024-02-28T05:52:31;101894.25;;;1.96;98.84
84764;BME280;74992;51.072;6.088;2024-02-28T05:55:32;101889.63;;;2.04;98.64
84764;BME280;74992;51.072;6.088;2024-02-28T05:58:34;101883.66;;;2.03;99.45
84764;BME280;74992;51.072;6.088;2024-02-28T06:01:35;101887.94;;;2.04;99.35
84764;BME280;74992;51.072;6.088;2024-02-28T06:04:38;101901.72;;;2.08;99.04
84764;BME280;74992;51.072;6.088;2024-02-28T06:07:39;101901.13;;;2.12;98.98
84764;BME280;74992;51.072;6.088;2024-02-28T06:10:41;101900.44;;;2.31;98.76
84764;BME280;74992;51.072;6.088;2024-02-28T06:13:43;101917.75;;;2.37;99.13
84764;BME280;74992;51.072;6.088;2024-02-28T06:16:48;101919.59;;;2.39;98.88
84764;BME280;74992;51.072;6.088;2024-02-28T06:19:49;101915.13;;;2.35;98.94
84764;BME280;74992;51.072;6.088;2024-02-28T06:22:51;101912.88;;;2.41;98.74
84764;BME280;74992;51.072;6.088;2024-02-28T06:25:53;101920.06;;;2.32;98.97
84764;BME280;74992;51.072;6.088;2024-02-28T06:28:56;101911.84;;;2.38;98.58
84764;BME280;74992;51.072;6.088;2024-02-28T06:32:01;101930.31;;;2.33;98.66
84764;BME280;74992;51.072;6.088;2024-02-28T06:35:03;101928.81;;;2.37;98.91
84764;BME280;74992;51.072;6.088;2024-02-28T06:38:04;101936.50;;;2.53;98.11
84764;BME280;74992;51.072;6.088;2024-02-28T06:41:06;101934.94;;;2.41;98.20
84764;BME280;74992;51.072;6.088;2024-02-28T06:44:08;101938.22;;;2.38;98.50
84764;BME280;74992;51.072;6.088;2024-02-28T06:47:09;101945.50;;;2.47;98.18
84764;BME280;74992;51.072;6.088;2024-02-28T06:50:11;101946.59;;;2.52;98.41
84764;BME280;74992;51.072;6.088;2024-02-28T06:53:12;101947.13;;;2.61;97.93
84764;BME280;74992;51.072;6.088;2024-02-28T06:56:14;101945.16;;;2.72;98.56
84764;BME280;74992;51.072;6.088;2024-02-28T06:59:15;101949.22;;;2.68;98.06
84764;BME280;74992;51.072;6.088;2024-02-28T07:02:16;101946.97;;;2.74;97.54
84764;BME280;74992;51.072;6.088;2024-02-28T07:05:18;101951.78;;;2.84;97.95
84764;BME280;74992;51.072;6.088;2024-02-28T07:08:20;101956.16;;;2.87;97.00
84764;BME280;74992;51.072;6.088;2024-02-28T07:11:22;101958.97;;;2.91;97.21
84764;BME280;74992;51.072;6.088;2024-02-28T07:14:25;101964.00;;;3.06;96.09
84764;BME280;74992;51.072;6.088;2024-02-28T07:17:26;101960.00;;;3.11;95.68
84764;BME280;74992;51.072;6.088;2024-02-28T07:20:28;101956.66;;;3.12;96.11
84764;BME280;74992;51.072;6.088;2024-02-28T07:23:29;101962.81;;;3.16;95.52
84764;BME280;74992;51.072;6.088;2024-02-28T07:26:31;101965.44;;;3.17;95.34
84764;BME280;74992;51.072;6.088;2024-02-28T07:29:32;101975.41;;;3.13;95.31
84764;BME280;74992;51.072;6.088;2024-02-28T07:32:34;101970.09;;;3.25;95.64
84764;BME280;74992;51.072;6.088;2024-02-28T07:35:54;101967.28;;;3.36;95.44
84764;BME280;74992;51.072;6.088;2024-02-28T07:39:00;101972.56;;;3.39;94.85
84764;BME280;74992;51.072;6.088;2024-02-28T07:42:03;101978.53;;;3.40;93.87
84764;BME280;74992;51.072;6.088;2024-02-28T07:45:05;101983.28;;;3.34;93.80
84764;BME280;74992;51.072;6.088;2024-02-28T07:48:08;101993.75;;;3.38;94.41
84764;BME280;74992;51.072;6.088;2024-02-28T07:51:10;101992.97;;;3.39;94.27
84764;BME280;74992;51.072;6.088;2024-02-28T07:54:11;101994.56;;;3.37;94.51
84764;BME280;74992;51.072;6.088;2024-02-28T07:57:14;101995.19;;;3.49;94.25
84764;BME280;74992;51.072;6.088;2024-02-28T08:00:16;102001.91;;;3.47;93.39
84764;BME280;74992;51.072;6.088;2024-02-28T08:03:19;101991.13;;;3.53;93.15
84764;BME280;74992;51.072;6.088;2024-02-28T08:06:21;101995.41;;;3.54;92.89
84764;BME280;74992;51.072;6.088;2024-02-28T08:09:22;101991.72;;;3.81;93.51
84764;BME280;74992;51.072;6.088;2024-02-28T08:12:24;101997.59;;;3.97;92.40
84764;BME280;74992;51.072;6.088;2024-02-28T08:15:25;102000.78;;;4.09;91.03
84764;BME280;74992;51.072;6.088;2024-02-28T08:18:27;101992.91;;;4.22;90.88
84764;BME280;74992;51.072;6.088;2024-02-28T08:21:29;101990.56;;;4.27;90.56
84764;BME280;74992;51.072;6.088;2024-02-28T08:24:32;101993.00;;;4.42;90.44
84764;BME280;74992;51.072;6.088;2024-02-28T08:27:34;102004.97;;;4.43;89.85
84764;BME280;74992;51.072;6.088;2024-02-28T08:30:35;102007.09;;;4.33;90.26
84764;BME280;74992;51.072;6.088;2024-02-28T08:33:37;102012.59;;;4.07;89.89
84764;BME280;74992;51.072;6.088;2024-02-28T08:36:38;102009.31;;;3.93;91.37
84764;BME280;74992;51.072;6.088;2024-02-28T08:39:40;102010.25;;;3.77;90.95
84764;BME280;74992;51.072;6.088;2024-02-28T08:42:41;102018.63;;;3.75;91.83
84764;BME280;74992;51.072;6.088;2024-02-28T08:45:43;102023.00;;;3.94;91.99
84764;BME280;74992;51.072;6.088;2024-02-28T08:48:44;102023.97;;;4.14;91.30
84764;BME280;74992;51.072;6.088;2024-02-28T08:51:46;102020.53;;;4.29;91.05
84764;BME280;74992;51.072;6.088;2024-02-28T08:54:48;102029.16;;;4.15;90.44
84764;BME280;74992;51.072;6.088;2024-02-28T08:57:49;102033.09;;;4.43;89.53
84764;BME280;74992;51.072;6.088;2024-02-28T09:00:51;102033.63;;;4.53;89.98
84764;BME280;74992;51.072;6.088;2024-02-28T09:03:52;102039.00;;;4.59;89.07
84764;BME280;74992;51.072;6.088;2024-02-28T09:06:54;102044.13;;;4.77;89.21
84764;BME280;74992;51.072;6.088;2024-02-28T09:09:55;102042.59;;;4.98;88.62
84764;BME280;74992;51.072;6.088;2024-02-28T09:12:57;102035.72;;;5.35;87.30
84764;BME280;74992;51.072;6.088;2024-02-28T09:15:58;102031.47;;;5.54;86.27
84764;BME280;74992;51.072;6.088;2024-02-28T09:19:00;102044.22;;;5.34;85.29
84764;BME280;74992;51.072;6.088;2024-02-28T09:22:01;102039.97;;;5.34;85.45
84764;BME280;74992;51.072;6.088;2024-02-28T09:25:03;102043.00;;;5.64;85.47
84764;BME280;74992;51.072;6.088;2024-02-28T09:28:09;102045.81;;;5.90;84.61
84764;BME280;74992;51.072;6.088;2024-02-28T09:31:13;102034.44;;;5.83;82.56
84764;BME280;74992;51.072;6.088;2024-02-28T09:34:15;102028.22;;;6.17;83.06
84764;BME280;74992;51.072;6.088;2024-02-28T09:37:17;102019.94;;;6.24;81.77
84764;BME280;74992;51.072;6.088;2024-02-28T09:40:21;102022.44;;;6.01;82.13
84764;BME280;74992;51.072;6.088;2024-02-28T09:43:29;102013.94;;;6.02;83.25
84764;BME280;74992;51.072;6.088;2024-02-28T09:46:32;102006.50;;;5.89;83.15
84764;BME280;74992;51.072;6.088;2024-02-28T09:49:35;102005.75;;;6.11;82.75
84764;BME280;74992;51.072;6.088;2024-02-28T09:52:37;102007.28;;;6.70;82.97
84764;BME280;74992;51.072;6.088;2024-02-28T09:55:39;102003.44;;;6.81;80.08
84764;BME280;74992;51.072;6.088;2024-02-28T09:58:41;102005.31;;;6.63;81.04
84764;BME280;74992;51.072;6.088;2024-02-28T10:01:44;102001.75;;;6.82;81.46
84764;BME280;74992;51.072;6.088;2024-02-28T10:04:48;101999.03;;;6.77;80.45
84764;BME280;74992;51.072;6.088;2024-02-28T10:07:50;102000.19;;;6.85;79.98
84764;BME280;74992;51.072;6.088;2024-02-28T10:10:51;101995.28;;;6.69;80.47
84764;BME280;74992;51.072;6.088;2024-02-28T10:13:55;102004.56;;;6.88;79.99
84764;BME280;74992;51.072;6.088;2024-02-28T10:16:56;102013.91;;;6.86;79.46
84764;BME280;74992;51.072;6.088;2024-02-28T10:19:58;102012.56;;;6.73;79.47
84764;BME280;74992;51.072;6.088;2024-02-28T10:23:07;102011.06;;;6.57;80.46
84764;BME280;74992;51.072;6.088;2024-02-28T10:26:10;102017.69;;;6.52;80.20
84764;BME280;74992;51.072;6.088;2024-02-28T10:29:11;102023.84;;;6.78;79.85
84764;BME280;74992;51.072;6.088;2024-02-28T10:32:13;102018.78;;;7.02;79.56
84764;BME280;74992;51.072;6.088;2024-02-28T10:35:16;102021.09;;;7.41;78.67
84764;BME280;74992;51.072;6.088;2024-02-28T10:38:18;102021.91;;;7.64;78.03
84764;BME280;74992;51.072;6.088;2024-02-28T10:41:21;102024.66;;;7.44;77.61
84764;BME280;74992;51.072;6.088;2024-02-28T10:44:22;102024.38;;;7.37;78.88
84764;BME280;74992;51.072;6.088;2024-02-28T10:47:27;102016.41;;;7.53;77.44
84764;BME280;74992;51.072;6.088;2024-02-28T10:50:28;102025.44;;;7.66;76.74
84764;BME280;74992;51.072;6.088;2024-02-28T10:53:41;102021.16;;;7.90;75.74
84764;BME280;74992;51.072;6.088;2024-02-28T10:56:43;102018.22;;;8.05;75.69
84764;BME280;74992;51.072;6.088;2024-02-28T10:59:45;102016.31;;;7.75;75.81
84764;BME280;74992;51.072;6.088;2024-02-28T11:02:47;102014.81;;;7.80;75.92
84764;BME280;74992;51.072;6.088;2024-02-28T11:05:49;102011.34;;;8.04;75.92
84764;BME280;74992;51.072;6.088;2024-02-28T11:08:52;102016.06;;;7.92;74.78
84764;BME280;74992;51.072;6.088;2024-02-28T11:11:55;102013.72;;;7.74;74.83
84764;BME280;74992;51.072;6.088;2024-02-28T11:15:01;102005.91;;;7.71;75.80
84764;BME280;74992;51.072;6.088;2024-02-28T11:18:08;102012.19;;;7.79;76.44
84764;BME280;74992;51.072;6.088;2024-02-28T11:21:16;102008.69;;;7.77;76.39
84764;BME280;74992;51.072;6.088;2024-02-28T11:24:18;102005.72;;;7.90;77.14
84764;BME280;74992;51.072;6.088;2024-02-28T11:27:19;101996.00;;;8.07;76.81
84764;BME280;74992;51.072;6.088;2024-02-28T11:30:21;101995.75;;;8.25;76.71
84764;BME280;74992;51.072;6.088;2024-02-28T11:33:22;101992.88;;;8.15;74.43
84764;BME280;74992;51.072;6.088;2024-02-28T11:36:25;101990.16;;;8.11;74.85
84764;BME280;74992;51.072;6.088;2024-02-28T11:39:28;101984.47;;;8.21;74.21
84764;BME280;74992;51.072;6.088;2024-02-28T11:42:34;101981.19;;;8.25;74.17
84764;BME280;74992;51.072;6.088;2024-02-28T11:45:39;101974.44;;;8.29;73.58
84764;BME280;74992;51.072;6.088;2024-02-28T11:48:41;101971.97;;;8.32;73.21
84764;BME280;74992;51.072;6.088;2024-02-28T11:51:44;101967.47;;;8.25;72.81
84764;BME280;74992;51.072;6.088;2024-02-28T11:54:45;101969.44;;;8.33;74.21
84764;BME280;74992;51.072;6.088;2024-02-28T11:57:47;101961.06;;;8.66;73.44
84764;BME280;74992;51.072;6.088;2024-02-28T12:00:49;101973.88;;;8.64;71.51
84764;BME280;74992;51.072;6.088;2024-02-28T12:03:51;101965.28;;;8.64;71.94
84764;BME280;74992;51.072;6.088;2024-02-28T12:06:53;101964.88;;;8.78;71.28
84764;BME280;74992;51.072;6.088;2024-02-28T12:09:55;101960.78;;;8.85;72.39
84764;BME280;74992;51.072;6.088;2024-02-28T12:13:04;101954.66;;;8.80;71.30
84764;BME280;74992;51.072;6.088;2024-02-28T12:16:08;101952.47;;;8.65;71.97
84764;BME280;74992;51.072;6.088;2024-02-28T12:19:11;101947.59;;;8.74;72.23
84764;BME280;74992;51.072;6.088;2024-02-28T12:22:13;101942.88;;;8.88;71.64
84764;BME280;74992;51.072;6.088;2024-02-28T12:25:15;101942.38;;;9.01;70.77
84764;BME280;74992;51.072;6.088;2024-02-28T12:28:17;101945.94;;;9.05;70.07
84764;BME280;74992;51.072;6.088;2024-02-28T12:31:18;101939.88;;;9.03;70.11
84764;BME280;74992;51.072;6.088;2024-02-28T12:34:21;101931.19;;;8.99;68.87
84764;BME280;74992;51.072;6.088;2024-02-28T12:37:23;101924.56;;;9.07;69.52
84764;BME280;74992;51.072;6.088;2024-02-28T12:40:24;101922.13;;;9.14;68.99
84764;BME280;74992;51.072;6.088;2024-02-28T12:43:26;101911.91;;;9.15;68.22
84764;BME280;74992;51.072;6.088;2024-02-28T12:46:27;101911.91;;;9.15;67.04
84764;BME280;74992;51.072;6.088;2024-02-28T12:49:29;101914.34;;;9.42;69.10
84764;BME280;74992;51.072;6.088;2024-02-28T12:52:30;101906.28;;;9.61;66.44
84764;BME280;74992;51.072;6.088;2024-02-28T12:55:32;101908.34;;;9.43;66.67
84764;BME280;74992;51.072;6.088;2024-02-28T12:58:33;101902.94;;;9.65;66.62
84764;BME280;74992;51.072;6.088;2024-02-28T13:01:35;101898.53;;;9.61;64.97
84764;BME280;74992;51.072;6.088;2024-02-28T13:04:40;101895.44;;;9.75;66.59
84764;BME280;74992;51.072;6.088;2024-02-28T13:07:42;101896.31;;;9.75;65.83
84764;BME280;74992;51.072;6.088;2024-02-28T13:10:44;101891.28;;;9.81;65.29
84764;BME280;74992;51.072;6.088;2024-02-28T13:13:46;101893.28;;;9.93;64.44
84764;BME280;74992;51.072;6.088;2024-02-28T13:16:47;101883.53;;;9.80;64.37
84764;BME280;74992;51.072;6.088;2024-02-28T13:19:51;101882.59;;;9.76;64.59
84764;BME280;74992;51.072;6.088;2024-02-28T13:22:53;101879.19;;;9.79;64.15
84764;BME280;74992;51.072;6.088;2024-02-28T13:25:54;101879.00;;;9.71;65.30
84764;BME280;74992;51.072;6.088;2024-02-28T13:28:56;101872.53;;;9.87;65.22
84764;BME280;74992;51.072;6.088;2024-02-28T13:31:58;101870.50;;;9.74;63.82
84764;BME280;74992;51.072;6.088;2024-02-28T13:35:00;101872.38;;;9.81;65.63
84764;BME280;74992;51.072;6.088;2024-02-28T13:38:02;101865.22;;;9.69;63.21
84764;BME280;74992;51.072;6.088;2024-02-28T13:41:04;101865.09;;;9.64;63.72
84764;BME280;74992;51.072;6.088;2024-02-28T13:44:07;101868.66;;;9.70;63.81
84764;BME280;74992;51.072;6.088;2024-02-28T13:47:09;101870.38;;;9.69;64.29
84764;BME280;74992;51.072;6.088;2024-02-28T13:50:12;101863.19;;;9.57;63.89
84764;BME280;74992;51.072;6.088;2024-02-28T13:53:15;101858.69;;;9.83;65.35
84764;BME280;74992;51.072;6.088;2024-02-28T13:56:16;101856.09;;;9.83;62.60
84764;BME280;74992;51.072;6.088;2024-02-28T13:59:18;101852.78;;;9.87;62.50
84764;BME280;74992;51.072;6.088;2024-02-28T14:02:22;101853.09;;;10.01;62.14
84764;BME280;74992;51.072;6.088;2024-02-28T14:05:26;101848.25;;;10.15;62.24
84764;BME280;74992;51.072;6.088;2024-02-28T14:08:29;101857.72;;;10.16;60.97
84764;BME280;74992;51.072;6.088;2024-02-28T14:11:32;101860.66;;;10.30;61.11
84764;BME280;74992;51.072;6.088;2024-02-28T14:14:34;101856.97;;;10.58;60.60
84764;BME280;74992;51.072;6.088;2024-02-28T14:17:35;101857.00;;;10.59;59.45
84764;BME280;74992;51.072;6.088;2024-02-28T14:20:37;101859.31;;;10.47;60.60
84764;BME280;74992;51.072;6.088;2024-02-28T14:23:39;101845.38;;;10.39;60.30
84764;BME280;74992;51.072;6.088;2024-02-28T14:26:41;101846.19;;;10.36;61.39
84764;BME280;74992;51.072;6.088;2024-02-28T14:29:43;101849.72;;;10.41;60.99
84764;BME280;74992;51.072;6.088;2024-02-28T14:32:44;101841.03;;;10.36;58.99
84764;BME280;74992;51.072;6.088;2024-02-28T14:35:47;101842.59;;;10.30;58.24
84764;BME280;74992;51.072;6.088;2024-02-28T14:38:48;101855.63;;;10.36;58.92
84764;BME280;74992;51.072;6.088;2024-02-28T14:41:50;101849.88;;;10.47;58.60
84764;BME280;74992;51.072;6.088;2024-02-28T14:44:52;101849.66;;;10.38;57.93
84764;BME280;74992;51.072;6.088;2024-02-28T14:47:54;101844.16;;;10.21;58.65
84764;BME280;74992;51.072;6.088;2024-02-28T14:50:55;101843.72;;;10.05;58.73
84764;BME280;74992;51.072;6.088;2024-02-28T14:53:56;101840.00;;;9.92;59.14
84764;BME280;74992;51.072;6.088;2024-02-28T14:56:58;101843.41;;;9.91;60.19
84764;BME280;74992;51.072;6.088;2024-02-28T15:00:00;101829.84;;;10.00;60.85
84764;BME280;74992;51.072;6.088;2024-02-28T15:03:07;101830.69;;;9.99;61.14
84764;BME280;74992;51.072;6.088;2024-02-28T15:06:09;101832.53;;;10.04;61.26
84764;BME280;74992;51.072;6.088;2024-02-28T15:09:10;101831.81;;;10.10;60.66
84764;BME280;74992;51.072;6.088;2024-02-28T15:12:12;101825.69;;;10.06;61.37
84764;BME280;74992;51.072;6.088;2024-02-28T15:15:14;101829.47;;;10.20;62.25
84764;BME280;74992;51.072;6.088;2024-02-28T15:18:16;101825.88;;;10.14;62.35
84764;BME280;74992;51.072;6.088;2024-02-28T15:21:17;101822.47;;;10.15;63.53
84764;BME280;74992;51.072;6.088;2024-02-28T15:24:19;101826.69;;;10.11;62.80
84764;BME280;74992;51.072;6.088;2024-02-28T15:27:21;101824.91;;;10.09;62.74
84764;BME280;74992;51.072;6.088;2024-02-28T15:30:23;101819.63;;;10.04;63.42
84764;BME280;74992;51.072;6.088;2024-02-28T15:33:24;101825.59;;;10.02;64.42
84764;BME280;74992;51.072;6.088;2024-02-28T15:36:26;101829.81;;;9.97;64.47
84764;BME280;74992;51.072;6.088;2024-02-28T15:39:27;101817.59;;;9.89;63.52
84764;BME280;74992;51.072;6.088;2024-02-28T15:42:29;101815.56;;;9.76;64.01
84764;BME280;74992;51.072;6.088;2024-02-28T15:45:31;101814.72;;;9.77;64.96
84764;BME280;74992;51.072;6.088;2024-02-28T15:48:33;101806.13;;;9.77;64.47
84764;BME280;74992;51.072;6.088;2024-02-28T15:51:34;101802.81;;;9.82;64.33
84764;BME280;74992;51.072;6.088;2024-02-28T15:54:39;101796.06;;;9.87;64.83
84764;BME280;74992;51.072;6.088;2024-02-28T15:57:40;101795.88;;;9.80;63.99
84764;BME280;74992;51.072;6.088;2024-02-28T16:00:43;101788.03;;;9.74;64.45
84764;BME280;74992;51.072;6.088;2024-02-28T16:03:45;101794.72;;;9.67;65.77
84764;BME280;74992;51.072;6.088;2024-02-28T16:06:46;101790.03;;;9.51;65.51